createdAt,value
2023-01-21T00:00:56.966Z,100.00
2023-01-21T00:03:23.957Z,100.00
2023-01-21T00:05:50.666Z,100.00
2023-01-21T00:08:17.248Z,100.00
2023-01-21T00:10:44.246Z,100.00
2023-01-21T00:13:11.020Z,100.00
2023-01-21T00:15:37.952Z,100.00
2023-01-21T00:18:04.805Z,100.00
2023-01-21T00:20:31.427Z,100.00
2023-01-21T00:22:58.105Z,100.00
2023-01-21T00:25:24.806Z,100.00
2023-01-21T00:27:51.399Z,100.00
2023-01-21T00:30:18.642Z,100.00
2023-01-21T00:32:45.510Z,100.00
2023-01-21T00:35:12.183Z,100.00
2023-01-21T00:37:38.787Z,100.00
2023-01-21T00:40:06.946Z,100.00
2023-01-21T00:42:33.589Z,100.00
2023-01-21T00:45:00.281Z,100.00
2023-01-21T00:47:27.121Z,100.00
2023-01-21T00:49:53.677Z,100.00
2023-01-21T00:52:20.423Z,100.00
2023-01-21T00:54:47.004Z,100.00
2023-01-21T00:57:14.020Z,100.00
2023-01-21T00:59:41.069Z,100.00
2023-01-21T01:02:08.736Z,100.00
2023-01-21T01:04:35.473Z,100.00
2023-01-21T01:07:02.410Z,100.00
2023-01-21T01:09:29.255Z,100.00
2023-01-21T01:11:55.803Z,100.00
2023-01-21T01:14:22.596Z,100.00
2023-01-21T01:16:50.012Z,100.00
2023-01-21T01:19:17.123Z,100.00
2023-01-21T01:21:43.723Z,100.00
2023-01-21T01:24:10.385Z,100.00
2023-01-21T01:26:37.133Z,100.00
2023-01-21T01:29:04.769Z,100.00
2023-01-21T01:31:31.709Z,100.00
2023-01-21T01:33:58.601Z,100.00
2023-01-21T01:36:25.454Z,100.00
2023-01-21T01:38:53.439Z,100.00
2023-01-21T01:41:25.587Z,100.00
2023-01-21T01:44:04.345Z,100.00
2023-01-21T01:46:33.743Z,100.00
2023-01-21T01:49:20.627Z,100.00
2023-01-21T01:52:01.728Z,100.00
2023-01-21T01:54:31.330Z,100.00
2023-01-21T01:57:00.503Z,100.00
2023-01-21T01:59:28.027Z,100.00
2023-01-21T02:01:56.953Z,100.00
2023-01-21T02:04:27.845Z,100.00
2023-01-21T02:06:55.058Z,100.00
2023-01-21T02:09:22.134Z,100.00
2023-01-21T02:11:49.011Z,100.00
2023-01-21T02:14:15.658Z,100.00
2023-01-21T02:17:00.609Z,100.00
2023-01-21T02:19:45.424Z,100.00
2023-01-21T02:22:46.031Z,100.00
2023-01-21T02:25:34.708Z,100.00
2023-01-21T02:28:13.495Z,100.00
2023-01-21T02:31:27.872Z,100.00
2023-01-21T02:34:18.748Z,100.00
2023-01-21T02:37:06.523Z,100.00
2023-01-21T02:40:04.445Z,100.00
2023-01-21T02:42:31.087Z,100.00
2023-01-21T02:45:37.485Z,100.00
2023-01-21T02:48:23.684Z,100.00
2023-01-21T02:50:54.673Z,100.00
2023-01-21T02:53:33.167Z,100.00
2023-01-21T02:56:13.004Z,100.00
2023-01-21T02:58:42.220Z,100.00
2023-01-21T03:01:14.170Z,100.00
2023-01-21T03:03:59.218Z,100.00
2023-01-21T03:06:37.440Z,100.00
2023-01-21T03:09:06.978Z,100.00
2023-01-21T03:11:33.490Z,100.00
2023-01-21T03:14:49.454Z,100.00
2023-01-21T03:17:26.705Z,100.00
2023-01-21T03:20:13.469Z,100.00
2023-01-21T03:22:42.841Z,100.00
2023-01-21T03:25:12.060Z,100.00
2023-01-21T03:27:40.552Z,100.00
2023-01-21T03:30:14.409Z,100.00
2023-01-21T03:32:43.662Z,100.00
2023-01-21T03:35:13.280Z,100.00
2023-01-21T03:38:08.846Z,100.00
2023-01-21T03:40:43.673Z,100.00
2023-01-21T03:43:10.523Z,100.00
2023-01-21T03:45:43.654Z,100.00
2023-01-21T03:48:33.210Z,100.00
2023-01-21T03:51:01.933Z,100.00
2023-01-21T03:53:28.783Z,100.00
2023-01-21T03:55:55.336Z,100.00
2023-01-21T03:58:22.027Z,100.00
2023-01-21T04:00:49.280Z,100.00
2023-01-21T04:03:15.965Z,100.00
2023-01-21T04:05:42.608Z,100.00
2023-01-21T04:08:10.099Z,100.00
2023-01-21T04:10:36.707Z,100.00
2023-01-21T04:13:03.401Z,100.00
2023-01-21T04:15:29.983Z,100.00
2023-01-21T04:17:56.637Z,100.00
2023-01-21T04:20:23.209Z,100.00
2023-01-21T04:22:49.891Z,100.00
2023-01-21T04:25:16.464Z,100.00
2023-01-21T04:27:43.044Z,100.00
2023-01-21T04:30:10.281Z,100.00
2023-01-21T04:32:37.622Z,100.00
2023-01-21T04:35:04.575Z,100.00
2023-01-21T04:37:31.280Z,100.00
2023-01-21T04:39:57.952Z,100.00
2023-01-21T04:42:24.605Z,100.00
2023-01-21T04:44:51.142Z,100.00
2023-01-21T04:47:17.726Z,100.00
2023-01-21T04:49:44.281Z,100.00
2023-01-21T04:52:10.849Z,100.00
2023-01-21T04:54:37.422Z,100.00
2023-01-21T04:57:04.160Z,100.00
2023-01-21T04:59:30.824Z,100.00
2023-01-21T05:01:57.784Z,100.00
2023-01-21T05:04:24.347Z,100.00
2023-01-21T05:06:50.911Z,100.00
2023-01-21T05:09:17.508Z,100.00
2023-01-21T05:11:44.361Z,100.00
2023-01-21T05:14:10.935Z,100.00
2023-01-21T05:16:37.666Z,100.00
2023-01-21T05:19:04.291Z,100.00
2023-01-21T05:21:31.002Z,100.00
2023-01-21T05:23:57.752Z,100.00
2023-01-21T05:26:24.358Z,100.00
2023-01-21T05:28:50.991Z,100.00
2023-01-21T05:31:17.695Z,100.00
2023-01-21T05:33:46.058Z,100.00
2023-01-21T05:36:13.145Z,100.00
2023-01-21T05:38:39.868Z,100.00
2023-01-21T05:41:06.607Z,100.00
2023-01-21T05:43:33.169Z,100.00
2023-01-21T05:46:00.167Z,100.00
2023-01-21T05:48:29.147Z,100.00
2023-01-21T05:50:58.128Z,100.00
2023-01-21T05:53:28.152Z,100.00
2023-01-21T05:55:55.523Z,100.00
2023-01-21T05:58:23.572Z,100.00
2023-01-21T06:00:50.980Z,100.00
2023-01-21T06:03:18.393Z,100.00
2023-01-21T06:05:45.510Z,100.00
2023-01-21T06:08:13.348Z,100.00
2023-01-21T06:10:39.993Z,100.00
2023-01-21T06:13:06.630Z,100.00
2023-01-21T06:15:33.832Z,100.00
2023-01-21T06:18:01.204Z,100.00
2023-01-21T06:20:30.580Z,100.00
2023-01-21T06:22:58.013Z,100.00
2023-01-21T06:25:25.689Z,100.00
2023-01-21T06:27:55.286Z,100.00
2023-01-21T06:30:22.157Z,100.00
2023-01-21T06:32:48.841Z,100.00
2023-01-21T06:35:15.726Z,100.00
2023-01-21T06:37:42.465Z,100.00
2023-01-21T06:40:10.370Z,100.00
2023-01-21T06:42:37.001Z,100.00
2023-01-21T06:45:04.059Z,100.00
2023-01-21T06:47:30.619Z,100.00
2023-01-21T06:49:57.182Z,100.00
2023-01-21T06:52:24.371Z,100.00
2023-01-21T06:54:51.086Z,100.00
2023-01-21T06:57:20.763Z,100.00
2023-01-21T06:59:47.398Z,100.00
2023-01-21T07:02:14.023Z,100.00
2023-01-21T07:04:40.634Z,100.00
2023-01-21T07:07:07.490Z,100.00
2023-01-21T07:09:34.078Z,100.00
2023-01-21T07:12:00.624Z,100.00
2023-01-21T07:14:27.295Z,100.00
2023-01-21T07:16:53.883Z,100.00
2023-01-21T07:19:20.536Z,100.00
2023-01-21T07:21:47.147Z,100.00
2023-01-21T07:24:13.811Z,100.00
2023-01-21T07:26:41.637Z,100.00
2023-01-21T07:29:08.955Z,100.00
2023-01-21T07:31:35.769Z,100.00
2023-01-21T07:34:03.081Z,100.00
2023-01-21T07:36:29.727Z,100.00
2023-01-21T07:38:56.471Z,100.00
2023-01-21T07:41:23.688Z,100.00
2023-01-21T07:43:51.021Z,100.00
2023-01-21T07:46:18.842Z,100.00
2023-01-21T07:48:48.305Z,100.00
2023-01-21T07:51:14.990Z,100.00
2023-01-21T07:53:41.629Z,100.00
2023-01-21T07:56:10.243Z,100.00
2023-01-21T07:58:38.180Z,100.00
2023-01-21T08:01:05.621Z,100.00
2023-01-21T08:03:32.219Z,100.00
2023-01-21T08:05:58.801Z,100.00
2023-01-21T08:08:25.629Z,100.00
2023-01-21T08:10:53.700Z,100.00
2023-01-21T08:13:20.392Z,100.00
2023-01-21T08:15:55.033Z,100.00
2023-01-21T08:18:23.417Z,100.00
2023-01-21T08:20:55.661Z,100.00
2023-01-21T08:23:22.538Z,100.00
2023-01-21T08:25:49.121Z,100.00
2023-01-21T08:28:15.788Z,100.00
2023-01-21T08:30:42.390Z,100.00
2023-01-21T08:33:09.064Z,100.00
2023-01-21T08:35:35.658Z,100.00
2023-01-21T08:38:02.829Z,100.00
2023-01-21T08:40:29.577Z,100.00
2023-01-21T08:43:04.263Z,100.00
2023-01-21T08:45:31.090Z,100.00
2023-01-21T08:47:57.782Z,100.00
2023-01-21T08:50:24.490Z,100.00
2023-01-21T08:52:55.742Z,100.00
2023-01-21T08:55:27.079Z,100.00
2023-01-21T13:51:55.550Z,91.94
2023-01-21T13:54:22.223Z,92.99
2023-01-21T13:57:04.766Z,93.35
2023-01-21T14:00:07.260Z,93.29
2023-01-21T14:06:14.773Z,93.97
2023-01-21T14:18:23.811Z,97.01
2023-01-21T14:28:02.834Z,97.91
2023-01-21T14:34:10.763Z,98.19
2023-01-21T14:37:12.627Z,99.45
2023-01-21T14:40:39.480Z,99.30
2023-01-21T14:46:39.666Z,100.00
2023-01-21T14:49:15.775Z,100.00
2023-01-21T14:52:14.923Z,100.00
2023-01-21T14:55:28.626Z,100.00
2023-01-21T15:01:06.582Z,100.00
2023-01-21T15:03:39.525Z,100.00
2023-01-21T15:06:26.612Z,100.00
2023-01-21T15:09:05.063Z,100.00
2023-01-21T15:14:28.717Z,100.00
2023-01-21T15:17:01.782Z,100.00
2023-01-21T15:20:04.117Z,100.00
2023-01-21T15:22:45.117Z,100.00
2023-01-21T15:25:18.073Z,100.00
2023-01-21T15:28:24.805Z,100.00
2023-01-21T15:31:24.147Z,100.00
2023-01-21T15:34:17.329Z,100.00
2023-01-21T15:37:23.884Z,100.00
2023-01-21T15:39:58.709Z,100.00
2023-01-21T15:45:53.223Z,100.00
2023-01-21T15:48:55.648Z,100.00
2023-01-21T15:52:00.757Z,100.00
2023-01-21T15:55:26.200Z,100.00
2023-01-21T15:58:44.190Z,100.00
2023-01-21T16:01:46.501Z,100.00
2023-01-21T16:04:38.268Z,100.00
2023-01-21T16:07:30.964Z,100.00
2023-01-21T16:13:42.677Z,100.00
2023-01-21T16:16:20.952Z,100.00
2023-01-21T16:19:02.116Z,100.00
2023-01-21T16:21:37.025Z,100.00
2023-01-21T16:24:26.001Z,100.00
2023-01-21T16:26:57.745Z,100.00
2023-01-21T16:29:27.524Z,100.00
2023-01-21T16:32:01.959Z,100.00
2023-01-21T16:34:32.060Z,100.00
2023-01-21T16:36:58.802Z,100.00
2023-01-21T16:39:39.774Z,100.00
2023-01-21T16:42:07.969Z,100.00
2023-01-21T16:44:43.498Z,100.00
2023-01-21T16:47:31.630Z,100.00
2023-01-21T16:49:59.844Z,100.00
2023-01-21T16:52:29.973Z,100.00
2023-01-21T16:54:57.028Z,100.00
2023-01-21T16:57:31.814Z,100.00
2023-01-21T17:00:02.677Z,100.00
2023-01-21T17:02:37.865Z,100.00
2023-01-21T17:05:05.324Z,100.00
2023-01-21T17:07:34.924Z,100.00
2023-01-21T17:10:20.352Z,100.00
2023-01-21T17:12:50.133Z,100.00
2023-01-21T17:15:28.432Z,100.00
2023-01-21T17:17:57.086Z,100.00
2023-01-21T17:20:48.232Z,100.00
2023-01-21T17:23:31.802Z,100.00
2023-01-21T17:26:11.923Z,100.00
2023-01-21T17:28:44.145Z,100.00
2023-01-21T17:31:16.982Z,100.00
2023-01-21T17:34:01.055Z,100.00
2023-01-21T17:36:39.969Z,100.00
2023-01-21T17:39:10.593Z,100.00
2023-01-21T17:41:42.266Z,100.00
2023-01-21T17:44:21.357Z,100.00
2023-01-21T17:46:50.758Z,100.00
2023-01-21T17:49:21.624Z,100.00
2023-01-21T17:51:49.339Z,100.00
2023-01-21T17:54:23.220Z,100.00
2023-01-21T17:56:53.750Z,100.00
2023-01-21T17:59:46.046Z,100.00
2023-01-21T18:02:15.141Z,100.00
2023-01-21T18:04:46.184Z,100.00
2023-01-21T18:07:31.013Z,100.00
2023-01-21T18:10:00.651Z,100.00
2023-01-21T18:12:30.642Z,100.00
2023-01-21T18:14:58.540Z,100.00
2023-01-21T18:17:28.529Z,100.00
2023-01-21T18:19:57.076Z,100.00
2023-01-21T18:22:32.008Z,100.00
2023-01-21T18:25:03.147Z,100.00
2023-01-21T18:27:33.663Z,100.00
2023-01-21T18:30:00.591Z,100.00
2023-01-21T18:32:29.133Z,100.00
2023-01-21T18:34:56.137Z,100.00
2023-01-21T18:37:22.740Z,100.00
2023-01-21T18:39:52.856Z,100.00
2023-01-21T18:42:19.761Z,100.00
2023-01-21T18:44:46.436Z,100.00
2023-01-21T18:47:14.842Z,100.00
2023-01-21T18:49:45.031Z,100.00
2023-01-21T18:52:17.288Z,100.00
2023-01-21T18:54:44.428Z,100.00
2023-01-21T18:57:21.181Z,100.00
2023-01-21T18:59:48.055Z,100.00
2023-01-21T19:02:19.489Z,100.00
2023-01-21T19:04:50.774Z,100.00
2023-01-21T19:07:22.460Z,100.00
2023-01-21T19:09:51.261Z,100.00
2023-01-21T19:12:21.337Z,100.00
2023-01-21T19:14:48.931Z,100.00
2023-01-21T19:17:25.790Z,100.00
2023-01-21T19:19:58.763Z,100.00
2023-01-21T19:22:25.403Z,100.00
2023-01-21T19:24:57.537Z,100.00
2023-01-21T19:27:29.992Z,100.00
2023-01-21T19:29:56.961Z,100.00
2023-01-21T19:32:23.638Z,100.00
2023-01-21T19:34:50.492Z,100.00
2023-01-21T19:37:22.992Z,100.00
2023-01-21T19:39:49.746Z,100.00
2023-01-21T19:42:17.931Z,100.00
2023-01-21T19:44:44.613Z,100.00
2023-01-21T19:47:20.851Z,100.00
2023-01-21T19:49:47.858Z,100.00
2023-01-21T19:52:14.995Z,100.00
2023-01-21T19:54:41.795Z,100.00
2023-01-21T19:57:17.849Z,100.00
2023-01-21T19:59:45.288Z,100.00
2023-01-21T20:02:12.327Z,100.00
2023-01-21T20:04:39.242Z,100.00
2023-01-21T20:07:06.162Z,100.00
2023-01-21T20:09:35.914Z,100.00
2023-01-21T20:12:04.325Z,100.00
2023-01-21T20:14:33.319Z,100.00
2023-01-21T20:17:00.019Z,100.00
2023-01-21T20:19:26.641Z,100.00
2023-01-21T20:22:01.993Z,100.00
2023-01-21T20:24:33.131Z,100.00
2023-01-21T20:27:00.870Z,100.00
2023-01-21T20:29:27.798Z,100.00
2023-01-21T20:31:54.612Z,100.00
2023-01-21T20:34:21.333Z,100.00
2023-01-21T20:36:49.718Z,100.00
2023-01-21T20:39:16.598Z,100.00
2023-01-21T20:41:43.933Z,100.00
2023-01-21T20:44:10.796Z,100.00
2023-01-21T20:46:37.475Z,100.00
2023-01-21T20:49:04.177Z,100.00
2023-01-21T20:51:30.815Z,100.00
2023-01-21T20:53:57.610Z,100.00
2023-01-21T20:56:30.089Z,100.00
2023-01-21T20:58:57.178Z,100.00
2023-01-21T21:01:25.559Z,100.00
2023-01-21T21:03:52.437Z,100.00
2023-01-21T21:06:25.119Z,100.00
2023-01-21T21:08:52.384Z,100.00
2023-01-21T21:11:19.419Z,100.00
2023-01-21T21:13:48.445Z,100.00
2023-01-21T21:16:19.798Z,100.00
2023-01-21T21:18:46.524Z,100.00
2023-01-21T21:21:15.288Z,100.00
2023-01-21T21:23:41.953Z,100.00
2023-01-21T21:26:29.452Z,100.00
2023-01-21T21:28:57.712Z,100.00
2023-01-21T21:31:27.979Z,100.00
2023-01-21T21:33:54.676Z,100.00
2023-01-21T21:36:23.644Z,100.00
2023-01-21T21:38:52.172Z,100.00
2023-01-21T21:41:40.700Z,100.00
2023-01-21T21:44:09.210Z,100.00
2023-01-21T21:46:59.206Z,100.00
2023-01-21T21:49:26.230Z,100.00
2023-01-21T21:51:52.983Z,100.00
2023-01-21T21:54:21.313Z,100.00
2023-01-21T21:56:48.226Z,100.00
2023-01-21T21:59:15.625Z,100.00
2023-01-21T22:01:43.429Z,100.00
2023-01-21T22:04:10.733Z,100.00
2023-01-21T22:06:37.366Z,100.00
2023-01-21T22:09:04.199Z,100.00
2023-01-21T22:11:31.041Z,100.00
2023-01-21T22:13:58.150Z,100.00
2023-01-21T22:16:28.043Z,100.00
2023-01-21T22:18:56.261Z,100.00
2023-01-21T22:21:33.507Z,100.00
2023-01-21T22:24:05.765Z,100.00
2023-01-21T22:26:35.565Z,100.00
2023-01-21T22:29:02.769Z,100.00
2023-01-21T22:31:31.670Z,100.00
2023-01-21T22:33:59.003Z,100.00
2023-01-21T22:36:28.024Z,100.00
2023-01-21T22:38:54.801Z,100.00
2023-01-21T22:41:22.391Z,100.00
2023-01-21T22:43:50.071Z,100.00
2023-01-21T22:46:22.509Z,100.00
2023-01-21T22:48:49.367Z,100.00
2023-01-21T22:51:18.601Z,100.00
2023-01-21T22:53:45.509Z,100.00
2023-01-21T22:56:13.846Z,100.00
2023-01-21T22:58:40.660Z,100.00
2023-01-21T23:01:07.965Z,100.00
2023-01-21T23:03:35.086Z,100.00
2023-01-21T23:06:07.221Z,100.00
2023-01-21T23:08:36.138Z,100.00
2023-01-21T23:11:04.628Z,100.00
2023-01-21T23:13:32.200Z,100.00
2023-01-21T23:15:58.921Z,100.00
2023-01-21T23:18:27.164Z,100.00
2023-01-21T23:20:53.886Z,100.00
2023-01-21T23:23:21.047Z,100.00
2023-01-21T23:25:47.885Z,100.00
2023-01-21T23:28:17.836Z,100.00
2023-01-21T23:30:45.006Z,100.00
2023-01-21T23:33:12.234Z,100.00
2023-01-21T23:35:38.999Z,100.00
2023-01-21T23:38:05.687Z,100.00
2023-01-21T23:40:32.328Z,100.00
2023-01-21T23:42:58.994Z,100.00
2023-01-21T23:45:25.747Z,100.00
2023-01-21T23:47:52.541Z,100.00
2023-01-21T23:50:19.427Z,100.00
2023-01-21T23:52:46.557Z,100.00
2023-01-21T23:55:14.805Z,100.00
2023-01-21T23:57:44.171Z,100.00
